Time;durP1;ratioP1;P1;durP2;ratioP2;P2;SDS_P1;SDS_P2;PMS_P1;PMS_P2;Temp;Humidity;BMP_temperature;BMP_pressure;BME280_temperature;BME280_humidity;BME280_pressure;Samples;Min_cycle;Max_cycle;Signal;HPM_P1;HPM_P2
2022/03/27 00:00:35;;;;;;;39.53;31.45;;;16.00;49.30;;;;;;5032125;28;20032;-78
2022/03/27 00:03:01;;;;;;;39.28;29.63;;;16.00;49.30;;;;;;5032033;28;20021;-79
2022/03/27 00:05:26;;;;;;;44.20;29.65;;;16.00;49.10;;;;;;5032074;28;20033;-78
2022/03/27 00:07:52;;;;;;;43.28;32.90;;;16.00;49.00;;;;;;5031719;28;20181;-79
2022/03/27 00:10:18;;;;;;;43.97;30.23;;;16.00;49.10;;;;;;5031778;28;20128;-78
2022/03/27 00:12:43;;;;;;;43.85;32.03;;;16.00;49.40;;;;;;5031591;28;20029;-78
2022/03/27 00:15:09;;;;;;;45.45;31.52;;;16.00;49.20;;;;;;5031660;28;20063;-77
2022/03/27 00:17:36;;;;;;;40.92;31.35;;;15.90;49.50;;;;;;5031665;28;20029;-78
2022/03/27 00:20:04;;;;;;;43.28;32.00;;;16.00;50.00;;;;;;5031638;28;20429;-79
2022/03/27 00:22:30;;;;;;;42.05;29.48;;;16.00;49.60;;;;;;5032282;28;20021;-79
2022/03/27 00:24:56;;;;;;;41.28;30.40;;;15.90;49.40;;;;;;5035195;28;20443;-79
2022/03/27 00:27:23;;;;;;;40.17;30.52;;;15.90;49.40;;;;;;5034893;28;20029;-78
2022/03/27 00:29:49;;;;;;;39.42;29.52;;;15.90;49.60;;;;;;5034732;28;20026;-77
2022/03/27 00:32:15;;;;;;;39.97;30.23;;;15.90;49.50;;;;;;5034919;28;20119;-76
2022/03/27 00:34:41;;;;;;;39.30;29.40;;;15.80;49.50;;;;;;5035333;28;20482;-77
2022/03/27 00:37:07;;;;;;;39.40;28.90;;;15.70;49.20;;;;;;5033586;28;20116;-75
2022/03/27 00:39:32;;;;;;;36.72;28.60;;;15.70;48.60;;;;;;5033305;28;20426;-75
2022/03/27 00:41:58;;;;;;;38.88;28.80;;;15.70;49.00;;;;;;5034664;28;20132;-74
2022/03/27 00:44:24;;;;;;;42.88;29.63;;;15.70;49.00;;;;;;5034864;28;20044;-76
2022/03/27 00:46:50;;;;;;;39.75;28.42;;;15.70;49.00;;;;;;5034794;28;20032;-76
2022/03/27 00:49:16;;;;;;;38.05;28.58;;;15.80;48.90;;;;;;5033495;28;20387;-75
2022/03/27 00:51:42;;;;;;;38.78;27.45;;;15.80;48.90;;;;;;5034670;28;20017;-75
2022/03/27 00:54:07;;;;;;;33.72;27.33;;;15.80;49.00;;;;;;5034684;28;20037;-76
2022/03/27 00:56:33;;;;;;;31.40;26.00;;;15.80;48.70;;;;;;5034467;28;20028;-74
2022/03/27 00:59:00;;;;;;;32.92;25.83;;;15.90;48.60;;;;;;5034525;28;20086;-77
2022/03/27 01:01:35;;;;;;;41.28;23.67;;;15.80;48.20;;;;;;5034469;28;20022;-76
2022/03/27 01:04:01;;;;;;;31.50;25.13;;;15.80;48.50;;;;;;5034688;28;20030;-76
2022/03/27 01:06:32;;;;;;;34.33;24.92;;;15.80;48.30;;;;;;5034521;28;20036;-76
2022/03/27 01:11:43;;;;;;;34.80;25.17;;;15.80;48.20;;;;;;5034645;28;20094;-76
2022/03/27 01:14:09;;;;;;;31.15;22.75;;;15.80;48.20;;;;;;5034429;28;20038;-77
2022/03/27 01:16:46;;;;;;;31.27;22.15;;;15.80;47.70;;;;;;5034361;28;20021;-76
2022/03/27 01:19:14;;;;;;;30.52;23.27;;;15.90;46.90;;;;;;5034171;28;20406;-78
2022/03/27 01:21:45;;;;;;;29.83;23.60;;;15.80;47.60;;;;;;5034204;28;20029;-75
2022/03/27 01:24:12;;;;;;;38.58;22.23;;;15.80;47.70;;;;;;5034093;28;20026;-76
2022/03/27 01:26:39;;;;;;;28.98;22.38;;;15.80;47.70;;;;;;5034000;28;20418;-76
2022/03/27 01:29:06;;;;;;;32.33;22.20;;;15.90;47.50;;;;;;5034108;28;20026;-77
2022/03/27 01:31:35;;;;;;;28.17;21.42;;;15.90;47.20;;;;;;5034156;28;20029;-78
2022/03/27 01:34:02;;;;;;;26.60;21.20;;;15.90;47.00;;;;;;5032964;28;20040;-77
2022/03/27 01:36:34;;;;;;;27.35;21.63;;;15.90;47.20;;;;;;5034012;28;20053;-80
2022/03/27 01:39:01;;;;;;;28.00;21.17;;;15.90;47.20;;;;;;5033678;28;20498;-77
2022/03/27 01:41:26;;;;;;;26.90;20.33;;;15.90;46.80;;;;;;5032436;28;20062;-77
2022/03/27 01:43:53;;;;;;;27.73;20.98;;;15.90;46.40;;;;;;5033834;28;20135;-77
2022/03/27 01:46:19;;;;;;;26.88;20.75;;;15.90;46.50;;;;;;5033785;28;20112;-77
2022/03/27 01:48:45;;;;;;;27.15;20.73;;;15.80;46.30;;;;;;5033595;28;20087;-78
2022/03/27 01:51:11;;;;;;;27.88;20.25;;;15.70;46.40;;;;;;5033286;28;20022;-78
2022/03/27 01:53:39;;;;;;;27.92;19.42;;;15.70;46.40;;;;;;5033566;28;20052;-75
2022/03/27 01:56:06;;;;;;;26.08;20.13;;;15.60;46.40;;;;;;5033571;28;20494;-78
2022/03/27 01:58:32;;;;;;;26.63;19.65;;;15.60;46.10;;;;;;5033296;28;20057;-79
2022/03/27 02:00:58;;;;;;;24.30;19.40;;;15.60;45.70;;;;;;5033332;28;20486;-77
2022/03/27 02:03:27;;;;;;;25.38;19.30;;;15.60;45.40;;;;;;5033298;28;20033;-77
2022/03/27 02:05:56;;;;;;;25.50;17.85;;;15.50;45.50;;;;;;5033098;28;20168;-79
2022/03/27 02:08:23;;;;;;;21.38;17.15;;;15.60;45.70;;;;;;5033270;28;20040;-77
2022/03/27 02:10:50;;;;;;;21.90;17.20;;;15.50;45.20;;;;;;5033304;28;20022;-78
2022/03/27 02:13:21;;;;;;;23.20;17.13;;;15.50;45.50;;;;;;5033083;28;20045;-78
2022/03/27 02:15:48;;;;;;;27.92;17.23;;;15.50;45.60;;;;;;5033394;28;20481;-77
2022/03/27 02:18:15;;;;;;;27.65;17.60;;;15.50;45.60;;;;;;5032782;28;20022;-79
2022/03/27 02:20:44;;;;;;;23.15;16.55;;;15.50;45.50;;;;;;5033008;28;20034;-77
2022/03/27 02:23:13;;;;;;;26.80;17.42;;;15.50;45.70;;;;;;5032917;28;20025;-78
2022/03/27 02:25:39;;;;;;;21.08;17.77;;;15.50;44.10;;;;;;5032950;28;20076;-77
2022/03/27 02:28:06;;;;;;;23.27;16.23;;;15.50;45.30;;;;;;5032919;28;20116;-77
2022/03/27 02:30:32;;;;;;;21.50;17.27;;;15.50;45.00;;;;;;5032628;28;20420;-76
2022/03/27 02:32:58;;;;;;;24.45;17.25;;;15.50;45.30;;;;;;5033086;28;20036;-76
2022/03/27 02:35:24;;;;;;;26.13;20.00;;;15.50;45.30;;;;;;5033225;28;20478;-77
2022/03/27 02:37:50;;;;;;;30.75;22.58;;;15.50;45.60;;;;;;5032936;28;20029;-77
2022/03/27 02:40:16;;;;;;;31.00;23.25;;;15.50;46.30;;;;;;5031266;28;20029;-78
2022/03/27 02:42:42;;;;;;;28.55;23.98;;;15.50;46.50;;;;;;5032749;28;20049;-76
2022/03/27 02:45:08;;;;;;;32.92;24.27;;;15.50;46.70;;;;;;5031343;28;20108;-76
2022/03/27 02:47:35;;;;;;;31.48;23.60;;;15.40;46.90;;;;;;5032459;28;20517;-75
2022/03/27 02:50:04;;;;;;;29.17;23.77;;;15.40;46.90;;;;;;5031601;28;20045;-76
2022/03/27 02:52:30;;;;;;;28.55;23.40;;;15.30;47.20;;;;;;5032802;28;20028;-74
2022/03/27 02:54:57;;;;;;;32.40;23.48;;;15.30;47.20;;;;;;5033039;28;20026;-76
2022/03/27 02:57:23;;;;;;;32.95;22.98;;;15.30;47.30;;;;;;5032791;28;20075;-74
2022/03/27 02:59:52;;;;;;;33.05;22.20;;;15.30;47.30;;;;;;5032198;28;20025;-75
2022/03/27 03:02:19;;;;;;;28.55;22.10;;;15.30;46.90;;;;;;5032262;28;20025;-78
2022/03/27 03:04:45;;;;;;;31.42;22.80;;;15.30;47.10;;;;;;5032286;28;20037;-75
2022/03/27 03:07:10;;;;;;;30.05;22.10;;;15.40;47.30;;;;;;5032391;28;20021;-78
2022/03/27 03:09:36;;;;;;;35.33;22.98;;;15.40;47.30;;;;;;5032333;28;20442;-79
2022/03/27 03:12:02;;;;;;;29.20;23.95;;;15.30;47.10;;;;;;5032090;28;20375;-77
2022/03/27 03:14:28;;;;;;;28.25;22.13;;;15.40;47.30;;;;;;5032285;28;20045;-79
2022/03/27 03:16:55;;;;;;;31.10;22.92;;;15.40;47.10;;;;;;5032149;28;20036;-77
2022/03/27 03:19:21;;;;;;;34.28;24.45;;;15.40;47.30;;;;;;5030993;28;20040;-78
2022/03/27 03:21:47;;;;;;;33.47;23.13;;;15.40;47.30;;;;;;5032516;28;20121;-79
2022/03/27 03:24:12;;;;;;;32.50;24.25;;;15.40;47.20;;;;;;5032271;28;20041;-79
2022/03/27 03:26:38;;;;;;;33.70;24.35;;;15.40;47.20;;;;;;5032141;28;20128;-76
2022/03/27 03:29:04;;;;;;;29.00;23.08;;;15.30;47.30;;;;;;5032035;28;20025;-76
2022/03/27 03:31:29;;;;;;;31.60;22.88;;;15.40;47.30;;;;;;5032219;28;20029;-76
2022/03/27 03:33:55;;;;;;;28.85;22.40;;;15.30;47.20;;;;;;5032434;28;20108;-77
2022/03/27 03:36:21;;;;;;;33.72;24.23;;;15.30;47.30;;;;;;5032406;28;20427;-76
2022/03/27 03:38:46;;;;;;;29.33;23.35;;;15.30;47.70;;;;;;5032319;28;20026;-75
2022/03/27 03:41:12;;;;;;;29.88;22.92;;;15.30;47.70;;;;;;5032273;28;20109;-77
2022/03/27 03:43:38;;;;;;;32.85;23.10;;;15.30;47.60;;;;;;5032284;28;20061;-76
2022/03/27 03:46:04;;;;;;;39.85;23.55;;;15.30;47.90;;;;;;5032221;28;20034;-75
2022/03/27 03:48:31;;;;;;;29.20;21.83;;;15.30;47.70;;;;;;5032210;28;20033;-75
2022/03/27 03:50:57;;;;;;;31.77;22.83;;;15.30;47.90;;;;;;5032184;28;20458;-77
2022/03/27 03:53:24;;;;;;;31.52;21.92;;;15.30;47.80;;;;;;5031920;28;20053;-76
2022/03/27 03:55:50;;;;;;;27.45;21.85;;;15.30;47.70;;;;;;5032315;28;20037;-76
2022/03/27 03:58:16;;;;;;;27.90;22.17;;;15.30;48.00;;;;;;5033858;28;20071;-75
2022/03/27 04:00:42;;;;;;;30.23;22.60;;;15.30;47.70;;;;;;5034233;28;20130;-77
2022/03/27 04:03:10;;;;;;;26.77;21.27;;;15.30;47.70;;;;;;5035544;28;20364;-76
2022/03/27 04:05:35;;;;;;;29.15;21.65;;;15.40;47.90;;;;;;5035870;28;20026;-76
2022/03/27 04:08:02;;;;;;;28.95;22.35;;;15.40;47.70;;;;;;5035959;28;20085;-76
2022/03/27 04:10:28;;;;;;;27.38;21.52;;;15.30;47.40;;;;;;5035925;28;20021;-75
2022/03/27 04:12:54;;;;;;;31.58;21.50;;;15.30;47.70;;;;;;5035853;28;20036;-78
2022/03/27 04:15:20;;;;;;;26.15;21.15;;;15.30;47.60;;;;;;5035949;28;20036;-76
2022/03/27 04:17:47;;;;;;;29.20;20.92;;;15.20;47.60;;;;;;5035638;28;20449;-76
2022/03/27 04:20:13;;;;;;;33.80;22.48;;;15.20;47.70;;;;;;5035281;28;20091;-77
2022/03/27 04:22:43;;;;;;;25.92;20.20;;;15.20;47.40;;;;;;5035331;28;20437;-77
2022/03/27 04:25:09;;;;;;;25.85;21.17;;;15.20;47.50;;;;;;5034064;28;20343;-76
2022/03/27 04:27:35;;;;;;;28.48;21.08;;;15.20;47.60;;;;;;5034083;28;20470;-77
2022/03/27 04:30:09;;;;;;;30.65;22.48;;;15.20;47.50;;;;;;5035135;28;20117;-78
2022/03/27 04:32:36;;;;;;;29.50;21.90;;;15.10;47.20;;;;;;5034907;28;20437;-77
2022/03/27 04:35:03;;;;;;;35.58;22.08;;;15.10;47.60;;;;;;5035062;28;20021;-76
2022/03/27 04:37:28;;;;;;;31.05;21.95;;;15.10;47.70;;;;;;5034979;28;20097;-77
2022/03/27 04:40:01;;;;;;;29.58;23.17;;;15.00;48.40;;;;;;5034786;28;20108;-77
2022/03/27 04:42:27;;;;;;;29.33;22.03;;;15.00;47.60;;;;;;5034821;28;20047;-77
2022/03/27 04:44:52;;;;;;;28.83;21.27;;;15.00;47.90;;;;;;5035010;28;20268;-77
2022/03/27 04:47:19;;;;;;;30.65;22.40;;;15.00;48.50;;;;;;5034993;28;20532;-79
2022/03/27 04:49:45;;;;;;;30.73;22.35;;;14.90;48.60;;;;;;5017119;28;20029;-78
2022/03/27 04:52:11;;;;;;;30.13;22.73;;;14.80;48.00;;;;;;5034776;28;20036;-78
2022/03/27 04:54:37;;;;;;;30.42;21.63;;;14.80;48.10;;;;;;5033586;28;20475;-78
2022/03/27 04:57:03;;;;;;;29.67;23.02;;;14.80;48.20;;;;;;5034810;28;20026;-79
2022/03/27 04:59:30;;;;;;;29.33;21.98;;;14.80;48.20;;;;;;5034533;28;20037;-77
2022/03/27 05:01:57;;;;;;;26.35;21.42;;;14.80;48.10;;;;;;5034494;28;20459;-79
2022/03/27 05:04:23;;;;;;;28.42;21.38;;;14.80;48.10;;;;;;5034546;28;20018;-78
2022/03/27 05:06:49;;;;;;;27.85;22.45;;;14.80;48.10;;;;;;5034585;28;20026;-79
2022/03/27 05:09:14;;;;;;;25.92;20.55;;;14.80;48.20;;;;;;5034022;28;20025;-79
2022/03/27 05:11:40;;;;;;;27.50;21.65;;;14.80;48.00;;;;;;5034558;28;20029;-79
2022/03/27 05:14:06;;;;;;;31.45;21.58;;;14.80;48.00;;;;;;5033042;28;20038;-78
2022/03/27 05:16:32;;;;;;;28.52;20.75;;;14.80;48.00;;;;;;5034400;28;20021;-78
2022/03/27 05:18:57;;;;;;;33.88;21.08;;;14.80;48.00;;;;;;5034320;28;20048;-78
2022/03/27 05:21:25;;;;;;;28.02;20.73;;;14.90;48.00;;;;;;5034170;28;20029;-79
2022/03/27 05:23:51;;;;;;;29.70;20.75;;;14.90;48.10;;;;;;5033891;28;20037;-79
2022/03/27 05:26:17;;;;;;;27.05;19.83;;;14.90;47.90;;;;;;5033999;28;20095;-78
2022/03/27 05:28:43;;;;;;;27.60;19.83;;;14.90;48.10;;;;;;5034054;28;20437;-77
2022/03/27 05:31:09;;;;;;;30.65;20.55;;;14.90;47.80;;;;;;5034227;28;20021;-78
2022/03/27 05:33:36;;;;;;;29.42;19.30;;;14.90;47.80;;;;;;5032639;28;20456;-80
2022/03/27 05:36:10;;;;;;;25.75;18.48;;;14.90;47.50;;;;;;5033909;28;20112;-77
2022/03/27 05:38:40;;;;;;;27.02;19.25;;;14.90;46.80;;;;;;5033759;28;20083;-78
2022/03/27 05:41:09;;;;;;;23.90;16.73;;;15.00;47.70;;;;;;5034061;28;20486;-78
2022/03/27 05:43:36;;;;;;;23.55;17.13;;;15.00;47.10;;;;;;5033736;28;20133;-78
2022/03/27 05:46:02;;;;;;;22.30;17.05;;;15.00;46.90;;;;;;5033688;28;20076;-79
2022/03/27 05:48:28;;;;;;;28.60;18.23;;;15.00;46.80;;;;;;5033606;28;20497;-78
2022/03/27 05:50:54;;;;;;;23.40;17.38;;;15.00;46.80;;;;;;5038774;28;20017;-78
2022/03/27 05:53:19;;;;;;;21.48;16.92;;;15.10;46.80;;;;;;5053247;28;20570;-79
2022/03/27 05:55:47;;;;;;;26.90;17.88;;;15.10;46.40;;;;;;5051831;28;20020;-76
2022/03/27 05:58:13;;;;;;;24.30;17.92;;;15.20;46.50;;;;;;5047486;28;20043;-78
2022/03/27 06:00:40;;;;;;;22.00;15.98;;;15.10;46.20;;;;;;5056712;28;20485;-82
2022/03/27 06:03:06;;;;;;;20.73;16.13;;;15.20;46.10;;;;;;5056393;28;20021;-76
2022/03/27 06:05:32;;;;;;;19.23;14.60;;;15.30;45.60;;;;;;5052457;28;20025;-77
2022/03/27 06:07:59;;;;;;;21.33;15.00;;;15.30;45.30;;;;;;5054744;28;20465;-79
2022/03/27 06:10:35;;;;;;;20.63;15.45;;;15.40;45.20;;;;;;5053552;28;20087;-76
2022/03/27 06:13:02;;;;;;;23.27;15.23;;;15.40;45.00;;;;;;5053151;28;20031;-75
2022/03/27 06:15:30;;;;;;;20.70;15.80;;;15.50;45.30;;;;;;5053515;28;20029;-80
2022/03/27 06:17:57;;;;;;;18.92;14.00;;;15.40;44.80;;;;;;5053799;28;20056;-78
2022/03/27 06:20:28;;;;;;;26.60;15.77;;;15.50;44.50;;;;;;5045119;28;20033;-79
2022/03/27 06:22:54;;;;;;;22.52;15.25;;;15.50;44.80;;;;;;5034140;28;20498;-79
2022/03/27 06:25:22;;;;;;;21.88;15.43;;;15.50;44.50;;;;;;5033470;28;20036;-74
2022/03/27 06:27:49;;;;;;;20.55;15.55;;;15.50;44.50;;;;;;5033432;28;20025;-72
2022/03/27 06:30:16;;;;;;;19.58;13.85;;;15.50;44.70;;;;;;5033204;28;20024;-78
2022/03/27 06:32:43;;;;;;;21.50;14.00;;;15.50;43.70;;;;;;5033389;28;20083;-79
2022/03/27 06:35:11;;;;;;;22.95;14.52;;;15.60;43.70;;;;;;5032361;28;20033;-79
2022/03/27 06:37:38;;;;;;;20.42;13.48;;;15.60;43.70;;;;;;5033533;28;20344;-78
2022/03/27 06:40:06;;;;;;;17.70;13.75;;;15.60;43.60;;;;;;5031595;28;20577;-80
2022/03/27 06:42:32;;;;;;;22.58;13.82;;;15.70;42.80;;;;;;5042856;28;20042;-73
2022/03/27 06:44:58;;;;;;;23.98;14.82;;;15.70;43.50;;;;;;5034514;28;20383;-75
2022/03/27 06:47:27;;;;;;;20.70;14.10;;;15.70;43.20;;;;;;5034718;28;20029;-75
2022/03/27 06:49:55;;;;;;;22.55;15.52;;;15.70;43.90;;;;;;5035850;28;20032;-82
2022/03/27 06:52:25;;;;;;;27.80;14.10;;;15.80;44.00;;;;;;5036508;28;20056;-78
2022/03/27 06:54:52;;;;;;;22.83;14.82;;;15.70;44.00;;;;;;5035503;28;20486;-79
2022/03/27 06:57:18;;;;;;;27.70;15.68;;;15.70;44.40;;;;;;5034578;28;20108;-78
2022/03/27 07:05:14;;;;;;;23.58;14.10;;;15.80;43.30;;;;;;5033818;28;20116;-79
2022/03/27 07:07:41;;;;;;;21.58;14.23;;;15.80;44.40;;;;;;5032025;28;20040;-75
2022/03/27 07:10:08;;;;;;;18.25;13.18;;;15.80;44.00;;;;;;5033082;28;20052;-78
2022/03/27 07:12:33;;;;;;;23.08;13.10;;;15.80;43.00;;;;;;5033007;28;20030;-77
2022/03/27 07:14:59;;;;;;;21.40;14.35;;;15.90;43.00;;;;;;5064432;28;20048;-77
2022/03/27 07:17:25;;;;;;;17.08;12.93;;;16.00;43.40;;;;;;5053875;28;20025;-75
2022/03/27 07:19:52;;;;;;;18.85;13.23;;;16.00;43.20;;;;;;5039037;28;20133;-77
2022/03/27 07:22:18;;;;;;;18.10;13.15;;;16.00;42.80;;;;;;5040575;28;20024;-79
2022/03/27 07:24:45;;;;;;;19.10;13.75;;;16.00;42.60;;;;;;5051236;28;20025;-80
2022/03/27 07:27:11;;;;;;;23.92;12.95;;;16.10;42.50;;;;;;5053154;28;20048;-80
2022/03/27 07:29:38;;;;;;;19.92;13.35;;;16.10;42.40;;;;;;5052849;28;20032;-79
2022/03/27 07:32:08;;;;;;;22.45;13.52;;;16.10;42.50;;;;;;5054575;28;20095;-79
2022/03/27 07:34:35;;;;;;;18.50;13.00;;;16.20;41.70;;;;;;5056648;28;20029;-81
2022/03/27 07:37:01;;;;;;;23.10;13.50;;;16.20;41.80;;;;;;5056598;28;20057;-78
2022/03/27 07:39:27;;;;;;;23.40;15.55;;;16.30;41.80;;;;;;5056807;28;20037;-79
2022/03/27 07:41:53;;;;;;;18.75;13.00;;;16.30;41.60;;;;;;5056805;28;20037;-79
2022/03/27 07:44:19;;;;;;;36.42;14.20;;;16.40;41.20;;;;;;5056887;28;20115;-79
2022/03/27 07:46:46;;;;;;;23.50;13.70;;;16.60;41.30;;;;;;5055379;28;20025;-79
2022/03/27 07:49:12;;;;;;;25.85;14.43;;;16.80;41.30;;;;;;5056897;28;20031;-79
2022/03/27 07:51:38;;;;;;;37.03;15.18;;;17.00;41.00;;;;;;5056685;28;20017;-77
2022/03/27 07:54:04;;;;;;;21.58;13.38;;;17.20;40.50;;;;;;5056740;28;20389;-78
2022/03/27 07:56:30;;;;;;;22.33;12.80;;;17.40;39.30;;;;;;5056744;28;20093;-78
2022/03/27 07:58:56;;;;;;;17.77;13.02;;;17.50;39.20;;;;;;5057326;28;20021;-79
2022/03/27 08:01:23;;;;;;;20.27;12.90;;;17.70;38.50;;;;;;5057295;28;20059;-77
2022/03/27 08:03:49;;;;;;;20.58;13.25;;;17.80;38.10;;;;;;5057380;28;20010;-79
2022/03/27 08:06:15;;;;;;;18.35;12.75;;;18.00;38.30;;;;;;5056652;28;20124;-78
2022/03/27 08:08:42;;;;;;;18.60;11.85;;;18.10;37.70;;;;;;5057044;28;20096;-78
2022/03/27 08:11:08;;;;;;;20.90;12.50;;;18.10;36.90;;;;;;5056606;28;20503;-78
2022/03/27 08:13:34;;;;;;;18.75;12.48;;;18.20;37.00;;;;;;5057199;28;20037;-78
2022/03/27 08:16:00;;;;;;;17.95;11.93;;;18.30;36.90;;;;;;5055439;28;20063;-78
2022/03/27 08:18:29;;;;;;;15.10;11.05;;;18.30;36.40;;;;;;5056559;28;20028;-80
2022/03/27 08:20:55;;;;;;;16.50;11.55;;;18.40;36.40;;;;;;5056525;28;20031;-79
2022/03/27 08:23:22;;;;;;;24.98;13.32;;;18.40;36.10;;;;;;5056701;28;20021;-81
2022/03/27 08:28:32;;;;;;;17.08;11.70;;;18.60;35.80;;;;;;5056036;28;20573;-82
2022/03/27 08:30:57;;;;;;;29.98;12.75;;;18.70;35.70;;;;;;5055374;28;20052;-80
2022/03/27 08:33:23;;;;;;;22.38;12.30;;;18.80;35.70;;;;;;5056034;28;20115;-79
2022/03/27 08:35:49;;;;;;;21.85;11.32;;;18.90;35.30;;;;;;5055744;28;20036;-79
2022/03/27 08:38:17;;;;;;;13.80;10.38;;;19.00;34.50;;;;;;5054228;28;20025;-79
2022/03/27 08:40:44;;;;;;;18.45;11.95;;;19.10;34.00;;;;;;5054401;28;20470;-79
2022/03/27 08:43:15;;;;;;;14.32;10.38;;;19.20;34.00;;;;;;5053618;28;20532;-81
2022/03/27 08:45:42;;;;;;;12.55;8.90;;;19.30;32.90;;;;;;5055665;28;20477;-80
2022/03/27 08:48:09;;;;;;;14.45;9.70;;;19.40;33.70;;;;;;5056082;28;20029;-81
2022/03/27 08:50:58;;;;;;;20.55;10.18;;;19.40;32.40;;;;;;5037673;28;20048;-81
2022/03/27 08:53:51;;;;;;;18.20;10.98;;;19.50;33.10;;;;;;5055624;28;20045;-79
2022/03/27 08:56:18;;;;;;;19.50;10.38;;;19.60;33.60;;;;;;5035443;28;20041;-79
2022/03/27 08:58:45;;;;;;;15.45;11.23;;;19.70;32.10;;;;;;5055563;28;20025;-77
2022/03/27 09:01:11;;;;;;;16.27;10.15;;;19.80;32.50;;;;;;5055723;28;20112;-78
2022/03/27 09:03:37;;;;;;;16.30;10.00;;;19.90;31.30;;;;;;5055607;28;20020;-79
2022/03/27 09:06:08;;;;;;;13.07;9.00;;;20.00;31.90;;;;;;5055366;28;20029;-80
2022/03/27 09:08:34;;;;;;;12.10;8.43;;;20.00;29.90;;;;;;5055426;28;20386;-80
2022/03/27 09:11:01;;;;;;;14.77;9.90;;;20.10;30.20;;;;;;5054817;28;20045;-78
2022/03/27 09:13:28;;;;;;;12.52;8.93;;;20.10;30.10;;;;;;5055016;28;20107;-77
2022/03/27 09:16:05;;;;;;;13.63;9.38;;;20.10;29.80;;;;;;5054936;28;20037;-80
2022/03/27 09:18:49;;;;;;;14.13;9.90;;;20.20;30.00;;;;;;5053271;28;20027;-81
2022/03/27 09:21:16;;;;;;;14.10;9.95;;;20.30;30.40;;;;;;5054167;28;20200;-80
2022/03/27 09:23:42;;;;;;;15.25;9.77;;;20.30;30.00;;;;;;5054867;28;20029;-81
2022/03/27 09:26:16;;;;;;;11.25;9.05;;;20.30;29.70;;;;;;5054190;28;20501;-80
2022/03/27 09:28:43;;;;;;;;;;;20.40;29.70;;;;;;5053220;28;20028;-79
2022/03/27 09:31:17;;;;;;;15.20;9.55;;;20.30;28.60;;;;;;5054465;28;19909;-79
2022/03/27 09:33:49;;;;;;;12.82;9.05;;;20.40;29.60;;;;;;5054357;28;20033;-79
2022/03/27 09:36:30;;;;;;;14.35;9.02;;;20.40;29.60;;;;;;5054313;28;20037;-81
2022/03/27 09:39:11;;;;;;;15.57;9.48;;;20.40;29.50;;;;;;5053412;28;20021;-80
2022/03/27 09:41:46;;;;;;;15.57;8.13;;;20.50;29.20;;;;;;5054778;28;20039;-79
2022/03/27 09:44:21;;;;;;;11.88;7.95;;;20.60;29.10;;;;;;5054293;28;20044;-82
2022/03/27 09:46:57;;;;;;;13.35;8.52;;;20.60;28.90;;;;;;5054755;28;20036;-80
2022/03/27 09:49:30;;;;;;;15.45;9.48;;;20.60;28.70;;;;;;5054115;28;20116;-80
2022/03/27 09:52:05;;;;;;;16.17;9.63;;;20.60;28.80;;;;;;5053131;28;20099;-81
2022/03/27 09:54:51;;;;;;;12.05;9.15;;;20.70;29.00;;;;;;5054456;28;20037;-79
2022/03/27 09:57:19;;;;;;;11.40;8.05;;;20.70;28.90;;;;;;5050278;28;20040;-80
2022/03/27 09:59:46;;;;;;;11.35;8.25;;;20.80;29.00;;;;;;5054280;28;20469;-81
2022/03/27 10:02:33;;;;;;;13.30;8.05;;;20.80;29.00;;;;;;5054399;28;20103;-81
2022/03/27 10:05:31;;;;;;;13.98;8.43;;;20.80;29.10;;;;;;5053095;28;20021;-81
2022/03/27 10:07:57;;;;;;;11.38;8.20;;;20.80;28.70;;;;;;5049033;28;20158;-81
2022/03/27 10:10:25;;;;;;;11.52;8.25;;;20.90;29.20;;;;;;5053745;28;20477;-81
2022/03/27 10:12:52;;;;;;;10.00;7.10;;;21.00;29.30;;;;;;5053878;28;20043;-79
2022/03/27 10:15:20;;;;;;;12.93;8.07;;;21.10;28.90;;;;;;5053914;28;20041;-80
2022/03/27 10:17:51;;;;;;;11.95;8.30;;;21.30;29.00;;;;;;5053769;28;20064;-80
2022/03/27 10:20:19;;;;;;;12.48;9.25;;;21.40;29.10;;;;;;5053472;28;20021;-80
2022/03/27 10:23:10;;;;;;;12.10;8.18;;;21.50;29.00;;;;;;5055228;28;20032;-82
2022/03/27 10:25:50;;;;;;;15.65;8.77;;;21.60;28.80;;;;;;5055037;28;20033;-80
2022/03/27 10:28:20;;;;;;;12.93;8.10;;;21.60;28.50;;;;;;5057105;28;20033;-78
2022/03/27 10:30:50;;;;;;;11.75;8.52;;;21.70;28.60;;;;;;5054426;28;20023;-79
2022/03/27 10:33:17;;;;;;;12.32;8.02;;;21.70;28.10;;;;;;5052083;28;20033;-81
2022/03/27 10:36:02;;;;;;;13.93;9.50;;;21.70;28.10;;;;;;5053541;28;20096;-79
2022/03/27 10:38:44;;;;;;;11.18;7.78;;;21.70;27.70;;;;;;5052913;28;20021;-77
2022/03/27 10:41:16;;;;;;;13.63;7.65;;;21.80;27.80;;;;;;5053304;28;20025;-78
2022/03/27 10:44:11;;;;;;;13.02;7.82;;;21.80;28.10;;;;;;5051690;28;20049;-77
2022/03/27 10:46:37;;;;;;;10.05;7.50;;;22.00;27.10;;;;;;5053080;28;20032;-77
2022/03/27 10:49:15;;;;;;;13.25;8.43;;;22.00;27.40;;;;;;5053253;28;20100;-80
2022/03/27 10:51:43;;;;;;;10.57;6.82;;;22.00;26.40;;;;;;5052807;28;20021;-78
2022/03/27 10:54:19;;;;;;;12.07;7.05;;;22.10;26.60;;;;;;5052752;28;20111;-77
2022/03/27 10:56:54;;;;;;;11.07;7.47;;;22.10;26.30;;;;;;5051505;28;20025;-77
2022/03/27 10:59:23;;;;;;;11.23;6.65;;;22.10;25.30;;;;;;5052799;28;20067;-77
2022/03/27 11:01:58;;;;;;;9.88;6.80;;;22.30;26.10;;;;;;5053176;28;20107;-79
2022/03/27 11:04:38;;;;;;;10.10;6.43;;;22.30;24.90;;;;;;5053054;28;20029;-78
2022/03/27 11:07:33;;;;;;;11.73;6.45;;;22.40;25.70;;;;;;5050948;28;20120;-78
2022/03/27 11:09:59;;;;;;;9.52;5.93;;;22.50;25.00;;;;;;5048074;28;20037;-78
2022/03/27 11:12:25;;;;;;;10.68;6.22;;;22.50;24.80;;;;;;5051530;28;20033;-78
2022/03/27 11:14:59;;;;;;;9.40;6.45;;;22.60;25.10;;;;;;5053807;28;20124;-78
2022/03/27 11:17:45;;;;;;;11.25;7.15;;;22.60;25.20;;;;;;5052789;28;20088;-78
2022/03/27 11:20:20;;;;;;;13.45;6.85;;;22.70;25.20;;;;;;5052470;28;20044;-77
2022/03/27 11:22:55;;;;;;;9.60;6.75;;;22.70;24.80;;;;;;5051948;28;20151;-77
2022/03/27 11:25:26;;;;;;;10.18;6.30;;;22.80;24.80;;;;;;5051267;28;20538;-79
2022/03/27 11:27:54;;;;;;;9.13;6.00;;;22.80;24.70;;;;;;5052990;28;20028;-78
2022/03/27 11:30:19;;;;;;;8.77;5.20;;;22.90;24.60;;;;;;5052745;28;20033;-77
2022/03/27 11:33:11;;;;;;;12.10;6.10;;;23.00;23.80;;;;;;5051158;28;20370;-78
2022/03/27 11:35:37;;;;;;;8.95;6.22;;;23.20;24.00;;;;;;5052859;28;20021;-79
2022/03/27 11:38:20;;;;;;;13.60;6.30;;;23.40;24.40;;;;;;5052877;28;20025;-78
2022/03/27 11:40:46;;;;;;;10.48;6.38;;;23.60;25.20;;;;;;5053024;28;20029;-78
2022/03/27 11:43:30;;;;;;;9.30;6.60;;;23.60;23.90;;;;;;5053298;28;20490;-80
2022/03/27 11:45:57;;;;;;;11.55;6.90;;;23.70;25.30;;;;;;5052531;28;20108;-79
2022/03/27 11:48:24;;;;;;;12.68;6.80;;;23.80;26.10;;;;;;5053709;28;20021;-81
2022/03/27 11:50:50;;;;;;;11.38;6.63;;;23.90;25.90;;;;;;5053978;28;20567;-78
2022/03/27 11:53:16;;;;;;;13.98;7.20;;;23.90;25.90;;;;;;5053598;28;20064;-79
2022/03/27 11:55:42;;;;;;;17.10;7.55;;;23.90;25.50;;;;;;5053199;28;20156;-80
2022/03/27 11:58:08;;;;;;;14.00;7.25;;;24.00;25.20;;;;;;5054646;28;20450;-80
2022/03/27 12:00:35;;;;;;;12.90;6.32;;;24.00;25.50;;;;;;5054854;28;20029;-80
2022/03/27 12:03:13;;;;;;;12.80;7.00;;;24.10;25.70;;;;;;5055262;28;20036;-78
2022/03/27 12:05:39;;;;;;;14.45;7.47;;;24.20;25.20;;;;;;5054465;28;20033;-80
2022/03/27 12:08:06;;;;;;;12.75;7.63;;;24.30;24.90;;;;;;5053941;28;20079;-79
2022/03/27 12:10:43;;;;;;;16.08;7.90;;;24.50;25.30;;;;;;5053350;28;20508;-79
2022/03/27 12:13:11;;;;;;;11.80;7.10;;;24.50;25.90;;;;;;5053546;28;20029;-78
2022/03/27 12:15:39;;;;;;;14.48;7.65;;;24.60;25.70;;;;;;5052741;28;20021;-78
2022/03/27 12:18:05;;;;;;;15.95;7.60;;;24.60;25.60;;;;;;5053445;28;20135;-80
2022/03/27 12:20:42;;;;;;;14.10;6.65;;;24.70;25.90;;;;;;5055658;28;20025;-79
2022/03/27 12:23:22;;;;;;;13.75;7.88;;;24.60;25.70;;;;;;5054945;28;20116;-77
2022/03/27 12:32:11;;;;;;;22.00;7.78;;;24.50;25.60;;;;;;5055851;28;20052;-79
2022/03/27 12:34:55;;;;;;;14.95;7.95;;;24.40;26.20;;;;;;5055771;28;20474;-79
2022/03/27 12:37:26;;;;;;;11.25;6.45;;;24.40;25.50;;;;;;5057609;28;20021;-77
2022/03/27 12:39:51;;;;;;;11.95;7.80;;;24.20;26.30;;;;;;5055544;28;20028;-79
2022/03/27 12:42:42;;;;;;;12.30;7.40;;;24.10;26.30;;;;;;5055756;28;20079;-80
2022/03/27 12:45:14;;;;;;;12.55;7.57;;;24.00;26.10;;;;;;5055468;28;20021;-77
2022/03/27 12:47:41;;;;;;;12.38;7.85;;;24.00;26.60;;;;;;5055361;28;20029;-78
2022/03/27 12:50:10;;;;;;;14.50;7.90;;;23.90;27.10;;;;;;5055253;28;20043;-78
2022/03/27 12:52:47;;;;;;;13.60;8.98;;;23.70;27.70;;;;;;5055214;28;20029;-79
2022/03/27 12:55:13;;;;;;;15.02;8.77;;;23.70;27.60;;;;;;5055322;28;20025;-78